Avon Lake, Ohio
Current Conditions -  °F | °C
As of 2:51 PM on Monday 24 Nov 2014 (Local Time) from KCLE Reporting Station
Overcast Overcast  
Wind Chill: 53°   Ceiling: 4800
Heat Index: 53°   Visibility: 10mi
Dew Point: 41°   Wind: 30mph
Humidity: 64%   Direction: 240°WSW
Pressure: 29.44"   Gusts: 45mph
Location:  41.51°N, 82.02°W
Report Text: KCLE 241951Z 24026G39KT 10SM FEW034 BKN048 OVC060 12/05 A2944 RMK AO2 PK WND 22056/1855 SLP967 T01170050 $
Loading
Personal Weather Stations






























Interactive Weather Map New forecast layout! Learn more

10-Day Weather Forecast

Advertisements
Track Severe Weather on mobile